CCA8678 ZBAD-ZUCK
Flight info
| Callsign | CCA8678 |
|---|---|
| Flight time | 1h 58m |
| Altitude | 34100 |
| Route | PEGSO7F PEGSO B215 GODON W43 UGOTU J250 NNW W276 AVDIG W666 VINEX VINE1J |
| Aircraft | A319/M-SDE3FGHIRWY/LB1 |
Departure
| Time | 2026-04-23 11:32 |
|---|---|
| Airport | Beijing Daxing International Airport (ZBAD) |
Arrival
| Time | 2026-04-23 13:30 |
|---|---|
| Airport | Chongqing Jiangbei International Airport (ZUCK) |
| Time | Latitude | Longitude | Altitude | Speed | Heading |
|---|---|---|---|---|---|
| 2026-04-23 10:38 | 39.50864 | 116.40653 | 85 ft | 0 kts | 120° |
| 2026-04-23 10:41 | 39.50864 | 116.40652 | 85 ft | 0 kts | 120° |
| 2026-04-23 11:18 | 39.50864 | 116.40651 | 85 ft | 0 kts | 120° |
| 2026-04-23 11:21 | 39.50875 | 116.40628 | 86 ft | 4 kts | 120° |
| 2026-04-23 11:21 | 39.50888 | 116.40600 | 87 ft | 2 kts | 120° |
| 2026-04-23 11:21 | 39.50902 | 116.40577 | 88 ft | 4 kts | 168° |
| 2026-04-23 11:21 | 39.50926 | 116.40583 | 87 ft | 4 kts | 220° |
| 2026-04-23 11:22 | 39.50933 | 116.40591 | 88 ft | 1 kts | 226° |
| 2026-04-23 11:26 | 39.50928 | 116.40581 | 85 ft | 2 kts | 237° |
| 2026-04-23 11:26 | 39.50920 | 116.40555 | 87 ft | 4 kts | 249° |
| 2026-04-23 11:26 | 39.50908 | 116.40514 | 88 ft | 6 kts | 249° |
| 2026-04-23 11:26 | 39.50891 | 116.40455 | 87 ft | 8 kts | 249° |
| 2026-04-23 11:27 | 39.50871 | 116.40377 | 88 ft | 10 kts | 255° |
| 2026-04-23 11:27 | 39.50861 | 116.40280 | 89 ft | 12 kts | 263° |
| 2026-04-23 11:27 | 39.50851 | 116.40167 | 85 ft | 14 kts | 263° |
| 2026-04-23 11:27 | 39.50839 | 116.40041 | 86 ft | 13 kts | 263° |
| 2026-04-23 11:28 | 39.50880 | 116.39980 | 88 ft | 10 kts | 352° |
| 2026-04-23 11:28 | 39.50956 | 116.39969 | 89 ft | 12 kts | 354° |
| 2026-04-23 11:28 | 39.51043 | 116.39957 | 89 ft | 13 kts | 353° |
| 2026-04-23 11:28 | 39.51139 | 116.39940 | 89 ft | 15 kts | 353° |
| 2026-04-23 11:29 | 39.51244 | 116.39925 | 91 ft | 16 kts | 354° |
| 2026-04-23 11:29 | 39.51358 | 116.39909 | 89 ft | 17 kts | 353° |
| 2026-04-23 11:29 | 39.51440 | 116.39874 | 90 ft | 10 kts | 301° |
| 2026-04-23 11:29 | 39.51433 | 116.39798 | 93 ft | 7 kts | 261° |
| 2026-04-23 11:30 | 39.51429 | 116.39754 | 95 ft | 3 kts | 264° |
| 2026-04-23 11:30 | 39.51427 | 116.39723 | 96 ft | 5 kts | 264° |
| 2026-04-23 11:30 | 39.51404 | 116.39675 | 98 ft | 8 kts | 195° |
| 2026-04-23 11:30 | 39.51336 | 116.39688 | 97 ft | 13 kts | 174° |
| 2026-04-23 11:31 | 39.51119 | 116.39728 | 95 ft | 60 kts | 173° |
| 2026-04-23 11:31 | 39.50504 | 116.39821 | 99 ft | 116 kts | 173° |
| 2026-04-23 11:31 | 39.49536 | 116.39973 | 106 ft | 162 kts | 172° |
| 2026-04-23 11:31 | 39.48444 | 116.40162 | 662 ft | 157 kts | 174° |
| 2026-04-23 11:32 | 39.47360 | 116.40326 | 1232 ft | 157 kts | 177° |
| 2026-04-23 11:32 | 39.46272 | 116.40481 | 1850 ft | 157 kts | 177° |
| 2026-04-23 11:32 | 39.45187 | 116.40637 | 2423 ft | 157 kts | 178° |
| 2026-04-23 11:32 | 39.44101 | 116.40796 | 2995 ft | 157 kts | 178° |
| 2026-04-23 11:33 | 39.42997 | 116.40956 | 3454 ft | 167 kts | 178° |
| 2026-04-23 11:33 | 39.41764 | 116.41133 | 3715 ft | 190 kts | 177° |
| 2026-04-23 11:33 | 39.40365 | 116.41342 | 3977 ft | 216 kts | 176° |
| 2026-04-23 11:33 | 39.38789 | 116.41584 | 4375 ft | 240 kts | 176° |
| 2026-04-23 11:34 | 39.37050 | 116.41784 | 4902 ft | 259 kts | 184° |
| 2026-04-23 11:34 | 39.35263 | 116.41358 | 5679 ft | 264 kts | 202° |
| 2026-04-23 11:34 | 39.33661 | 116.40180 | 6497 ft | 269 kts | 221° |
| 2026-04-23 11:34 | 39.32445 | 116.38342 | 7301 ft | 272 kts | 240° |
| 2026-04-23 11:35 | 39.31532 | 116.36204 | 8064 ft | 277 kts | 243° |
| 2026-04-23 11:35 | 39.30590 | 116.33983 | 8928 ft | 281 kts | 243° |
| 2026-04-23 11:35 | 39.29641 | 116.31754 | 9764 ft | 285 kts | 243° |
| 2026-04-23 11:35 | 39.28669 | 116.29469 | 10284 ft | 300 kts | 243° |
| 2026-04-23 11:36 | 39.27627 | 116.27013 | 10513 ft | 324 kts | 243° |
| 2026-04-23 11:36 | 39.26598 | 116.24597 | 10841 ft | 338 kts | 243° |
| 2026-04-23 11:36 | 39.25420 | 116.21850 | 11508 ft | 344 kts | 243° |
| 2026-04-23 11:36 | 39.24269 | 116.19171 | 12210 ft | 348 kts | 243° |
| 2026-04-23 11:37 | 39.23094 | 116.16435 | 12915 ft | 351 kts | 243° |
| 2026-04-23 11:37 | 39.21904 | 116.13662 | 13614 ft | 355 kts | 243° |
| 2026-04-23 11:37 | 39.20703 | 116.10863 | 14254 ft | 358 kts | 243° |
| 2026-04-23 11:37 | 39.19498 | 116.08050 | 14879 ft | 361 kts | 243° |
| 2026-04-23 11:38 | 39.18277 | 116.05204 | 15499 ft | 364 kts | 243° |
| 2026-04-23 11:38 | 39.17050 | 116.02349 | 16131 ft | 366 kts | 243° |
| 2026-04-23 11:38 | 39.15807 | 115.99465 | 16760 ft | 369 kts | 243° |
| 2026-04-23 11:38 | 39.14550 | 115.96556 | 17383 ft | 373 kts | 243° |
| 2026-04-23 11:39 | 39.13285 | 115.93637 | 18006 ft | 376 kts | 243° |
| 2026-04-23 11:39 | 39.12004 | 115.90683 | 18578 ft | 379 kts | 243° |
| 2026-04-23 11:39 | 39.10718 | 115.87720 | 19129 ft | 381 kts | 243° |
| 2026-04-23 11:39 | 39.09420 | 115.84726 | 19687 ft | 384 kts | 243° |
| 2026-04-23 11:40 | 39.08218 | 115.81959 | 20205 ft | 386 kts | 243° |
| 2026-04-23 11:40 | 39.06906 | 115.78943 | 20759 ft | 389 kts | 243° |
| 2026-04-23 11:40 | 39.05662 | 115.76085 | 21263 ft | 391 kts | 243° |
| 2026-04-23 11:40 | 39.04324 | 115.73018 | 21771 ft | 394 kts | 243° |
| 2026-04-23 11:41 | 39.02981 | 115.69944 | 22266 ft | 396 kts | 243° |
| 2026-04-23 11:41 | 39.01623 | 115.66840 | 22756 ft | 399 kts | 243° |
| 2026-04-23 11:41 | 39.00255 | 115.63716 | 23232 ft | 402 kts | 242° |
| 2026-04-23 11:41 | 38.98880 | 115.60580 | 23645 ft | 405 kts | 242° |
| 2026-04-23 11:42 | 38.97491 | 115.57412 | 24048 ft | 407 kts | 242° |
| 2026-04-23 11:42 | 38.96096 | 115.54230 | 24444 ft | 409 kts | 243° |
| 2026-04-23 11:42 | 38.94703 | 115.51040 | 24834 ft | 411 kts | 243° |
| 2026-04-23 11:42 | 38.93486 | 115.47706 | 25207 ft | 413 kts | 248° |
| 2026-04-23 11:43 | 38.92312 | 115.44340 | 25592 ft | 415 kts | 248° |
| 2026-04-23 11:43 | 38.91126 | 115.40948 | 25985 ft | 417 kts | 248° |
| 2026-04-23 11:43 | 38.89933 | 115.37539 | 26369 ft | 419 kts | 248° |
| 2026-04-23 11:43 | 38.88735 | 115.34122 | 26734 ft | 422 kts | 247° |
| 2026-04-23 11:44 | 38.87522 | 115.30677 | 27102 ft | 424 kts | 247° |
| 2026-04-23 11:44 | 38.86302 | 115.27214 | 27462 ft | 426 kts | 247° |
| 2026-04-23 11:44 | 38.85081 | 115.23743 | 27825 ft | 429 kts | 247° |
| 2026-04-23 11:44 | 38.83845 | 115.20241 | 28165 ft | 432 kts | 247° |
| 2026-04-23 11:45 | 38.82605 | 115.16732 | 28507 ft | 434 kts | 247° |
| 2026-04-23 11:45 | 38.81356 | 115.13195 | 28851 ft | 436 kts | 247° |
| 2026-04-23 11:45 | 38.80099 | 115.09640 | 29173 ft | 439 kts | 247° |
| 2026-04-23 11:45 | 38.78839 | 115.06076 | 29475 ft | 441 kts | 247° |
| 2026-04-23 11:46 | 38.77566 | 115.02482 | 29783 ft | 443 kts | 247° |
| 2026-04-23 11:46 | 38.76289 | 114.98884 | 30079 ft | 446 kts | 247° |
| 2026-04-23 11:46 | 38.75016 | 114.95307 | 30334 ft | 448 kts | 247° |
| 2026-04-23 11:46 | 38.73720 | 114.91666 | 30615 ft | 449 kts | 247° |
| 2026-04-23 11:47 | 38.72427 | 114.88040 | 30989 ft | 448 kts | 247° |
| 2026-04-23 11:47 | 38.71132 | 114.84413 | 31376 ft | 447 kts | 247° |
| 2026-04-23 11:47 | 38.69842 | 114.80798 | 31759 ft | 446 kts | 247° |
| 2026-04-23 11:47 | 38.68557 | 114.77197 | 32118 ft | 445 kts | 247° |
| 2026-04-23 11:48 | 38.67270 | 114.73592 | 32499 ft | 445 kts | 247° |
| 2026-04-23 11:48 | 38.65988 | 114.70007 | 32885 ft | 443 kts | 247° |
| 2026-04-23 11:48 | 38.64704 | 114.66420 | 33278 ft | 443 kts | 247° |
| 2026-04-23 11:48 | 38.63419 | 114.62839 | 33652 ft | 442 kts | 247° |
| 2026-04-23 11:49 | 38.62138 | 114.59275 | 33937 ft | 442 kts | 247° |
| 2026-04-23 11:49 | 38.59565 | 114.52184 | 33989 ft | 438 kts | 247° |
| 2026-04-23 11:50 | 38.57001 | 114.45132 | 33986 ft | 437 kts | 247° |
| 2026-04-23 11:50 | 38.54450 | 114.38082 | 33987 ft | 438 kts | 247° |
| 2026-04-23 11:51 | 38.51894 | 114.31024 | 33992 ft | 438 kts | 247° |
| 2026-04-23 11:51 | 38.49760 | 114.25159 | 33994 ft | 438 kts | 247° |
| 2026-04-23 11:52 | 38.47187 | 114.18113 | 33989 ft | 438 kts | 246° |
| 2026-04-23 11:52 | 38.44611 | 114.11068 | 33992 ft | 438 kts | 246° |
| 2026-04-23 11:53 | 38.42022 | 114.04018 | 33993 ft | 439 kts | 246° |
| 2026-04-23 11:53 | 38.39436 | 113.96981 | 33992 ft | 438 kts | 246° |
| 2026-04-23 11:54 | 38.36850 | 113.89941 | 33996 ft | 439 kts | 246° |
| 2026-04-23 11:54 | 38.34246 | 113.82892 | 34000 ft | 439 kts | 246° |
| 2026-04-23 11:55 | 38.31624 | 113.75855 | 33998 ft | 440 kts | 246° |
| 2026-04-23 11:55 | 38.28968 | 113.68827 | 34003 ft | 441 kts | 246° |
| 2026-04-23 11:56 | 38.26307 | 113.61787 | 34003 ft | 442 kts | 246° |
| 2026-04-23 11:56 | 38.23635 | 113.54729 | 34009 ft | 443 kts | 246° |
| 2026-04-23 11:57 | 38.20972 | 113.47725 | 34010 ft | 443 kts | 245° |
| 2026-04-23 11:57 | 38.18285 | 113.40668 | 34010 ft | 444 kts | 246° |
| 2026-04-23 11:58 | 38.15641 | 113.33720 | 34010 ft | 445 kts | 246° |
| 2026-04-23 11:58 | 38.12987 | 113.26617 | 34014 ft | 445 kts | 246° |
| 2026-04-23 11:59 | 38.10346 | 113.19503 | 34017 ft | 446 kts | 246° |
| 2026-04-23 11:59 | 38.07685 | 113.12393 | 34020 ft | 446 kts | 246° |
| 2026-04-23 12:00 | 38.05017 | 113.05279 | 34019 ft | 446 kts | 246° |
| 2026-04-23 12:00 | 38.02343 | 112.98165 | 34026 ft | 447 kts | 246° |
| 2026-04-23 12:01 | 37.99668 | 112.91053 | 34026 ft | 447 kts | 246° |
| 2026-04-23 12:01 | 37.96977 | 112.83933 | 34017 ft | 448 kts | 246° |
| 2026-04-23 12:02 | 37.94279 | 112.76820 | 34013 ft | 448 kts | 246° |
| 2026-04-23 12:02 | 37.91575 | 112.69703 | 34018 ft | 448 kts | 246° |
| 2026-04-23 12:03 | 37.88865 | 112.62603 | 34010 ft | 448 kts | 246° |
| 2026-04-23 12:03 | 37.86122 | 112.55528 | 34010 ft | 448 kts | 244° |
| 2026-04-23 12:04 | 37.83187 | 112.48571 | 34007 ft | 448 kts | 243° |
| 2026-04-23 12:04 | 37.80189 | 112.41667 | 34017 ft | 448 kts | 243° |
| 2026-04-23 12:05 | 37.77224 | 112.34747 | 34020 ft | 447 kts | 244° |
| 2026-04-23 12:05 | 37.74459 | 112.27753 | 34028 ft | 446 kts | 246° |
| 2026-04-23 12:06 | 37.71828 | 112.20646 | 34046 ft | 446 kts | 246° |
| 2026-04-23 12:06 | 37.67823 | 112.10036 | 34047 ft | 446 kts | 246° |
| 2026-04-23 12:07 | 37.65112 | 112.03006 | 34048 ft | 446 kts | 246° |
| 2026-04-23 12:07 | 37.62393 | 111.95980 | 34054 ft | 445 kts | 245° |
| 2026-04-23 12:08 | 37.59675 | 111.88972 | 34058 ft | 445 kts | 246° |
| 2026-04-23 12:08 | 37.56960 | 111.81967 | 34060 ft | 444 kts | 246° |
| 2026-04-23 12:09 | 37.54246 | 111.74982 | 34055 ft | 444 kts | 246° |
| 2026-04-23 12:09 | 37.51526 | 111.68003 | 34060 ft | 444 kts | 245° |
| 2026-04-23 12:10 | 37.48803 | 111.61034 | 34064 ft | 443 kts | 246° |
| 2026-04-23 12:10 | 37.46103 | 111.54123 | 34062 ft | 443 kts | 246° |
| 2026-04-23 12:11 | 37.43387 | 111.47183 | 34053 ft | 442 kts | 245° |
| 2026-04-23 12:11 | 37.40659 | 111.40257 | 34049 ft | 441 kts | 245° |
| 2026-04-23 12:12 | 37.37934 | 111.33345 | 34044 ft | 441 kts | 246° |
| 2026-04-23 12:12 | 37.35215 | 111.26435 | 34038 ft | 440 kts | 246° |
| 2026-04-23 12:13 | 37.32491 | 111.19544 | 34034 ft | 440 kts | 246° |
| 2026-04-23 12:13 | 37.29761 | 111.12667 | 34024 ft | 440 kts | 246° |
| 2026-04-23 12:14 | 37.27035 | 111.05795 | 34021 ft | 439 kts | 246° |
| 2026-04-23 12:14 | 37.24310 | 110.98927 | 34012 ft | 439 kts | 246° |
| 2026-04-23 12:15 | 37.21582 | 110.92075 | 34008 ft | 439 kts | 246° |
| 2026-04-23 12:15 | 37.18840 | 110.85238 | 34005 ft | 439 kts | 246° |
| 2026-04-23 12:16 | 37.16100 | 110.78403 | 34004 ft | 439 kts | 246° |
| 2026-04-23 12:16 | 37.13357 | 110.71566 | 34002 ft | 439 kts | 246° |
| 2026-04-23 12:17 | 37.10276 | 110.64965 | 34000 ft | 442 kts | 237° |
| 2026-04-23 12:17 | 37.06671 | 110.58723 | 34001 ft | 442 kts | 237° |
| 2026-04-23 12:18 | 37.03080 | 110.52525 | 33997 ft | 442 kts | 237° |
| 2026-04-23 12:18 | 36.99474 | 110.46298 | 33997 ft | 442 kts | 237° |
| 2026-04-23 12:19 | 36.95872 | 110.40077 | 33990 ft | 442 kts | 237° |
| 2026-04-23 12:19 | 36.92264 | 110.33852 | 33997 ft | 442 kts | 237° |
| 2026-04-23 12:20 | 36.88650 | 110.27652 | 33995 ft | 442 kts | 237° |
| 2026-04-23 12:20 | 36.85029 | 110.21455 | 33993 ft | 441 kts | 237° |
| 2026-04-23 12:21 | 36.81412 | 110.15253 | 34077 ft | 443 kts | 237° |
| 2026-04-23 12:21 | 36.79596 | 110.12143 | 34376 ft | 443 kts | 237° |
| 2026-04-23 12:21 | 36.77778 | 110.09044 | 34727 ft | 442 kts | 237° |
| 2026-04-23 12:22 | 36.75968 | 110.05959 | 35102 ft | 440 kts | 237° |
| 2026-04-23 12:22 | 36.74167 | 110.02887 | 35484 ft | 438 kts | 238° |
| 2026-04-23 12:22 | 36.72374 | 109.99824 | 35846 ft | 436 kts | 238° |
| 2026-04-23 12:22 | 36.70582 | 109.96769 | 35996 ft | 435 kts | 237° |
| 2026-04-23 12:23 | 36.67008 | 109.90704 | 36012 ft | 434 kts | 237° |
| 2026-04-23 12:23 | 36.63439 | 109.84654 | 36011 ft | 433 kts | 238° |
| 2026-04-23 12:24 | 36.59872 | 109.78615 | 36018 ft | 433 kts | 238° |
| 2026-04-23 12:24 | 36.56304 | 109.72584 | 36016 ft | 432 kts | 238° |
| 2026-04-23 12:25 | 36.52763 | 109.66612 | 36017 ft | 432 kts | 238° |
| 2026-04-23 12:25 | 36.49194 | 109.60603 | 36022 ft | 432 kts | 238° |
| 2026-04-23 12:26 | 36.45633 | 109.54609 | 36017 ft | 431 kts | 238° |
| 2026-04-23 12:26 | 36.41665 | 109.48988 | 36024 ft | 438 kts | 224° |
| 2026-04-23 12:27 | 36.36393 | 109.45058 | 36025 ft | 446 kts | 211° |
| 2026-04-23 12:27 | 36.30821 | 109.41659 | 36018 ft | 446 kts | 211° |
| 2026-04-23 12:28 | 36.25266 | 109.38262 | 36023 ft | 446 kts | 211° |
| 2026-04-23 12:28 | 36.19684 | 109.34901 | 36022 ft | 446 kts | 211° |
| 2026-04-23 12:29 | 36.14089 | 109.31563 | 36023 ft | 446 kts | 210° |
| 2026-04-23 12:29 | 36.08494 | 109.28226 | 36018 ft | 446 kts | 211° |
| 2026-04-23 12:30 | 36.02903 | 109.24884 | 36020 ft | 447 kts | 211° |
| 2026-04-23 12:30 | 35.97306 | 109.21551 | 36024 ft | 447 kts | 211° |
| 2026-04-23 12:31 | 35.91709 | 109.18218 | 36033 ft | 447 kts | 211° |
| 2026-04-23 12:31 | 35.86114 | 109.14881 | 36037 ft | 447 kts | 211° |
| 2026-04-23 12:32 | 35.80298 | 109.12057 | 36037 ft | 450 kts | 205° |
| 2026-04-23 12:32 | 35.74440 | 109.09454 | 36038 ft | 451 kts | 205° |
| 2026-04-23 12:33 | 35.68545 | 109.06828 | 36047 ft | 451 kts | 205° |
| 2026-04-23 12:33 | 35.62604 | 109.04190 | 36053 ft | 451 kts | 205° |
| 2026-04-23 12:34 | 35.56744 | 109.01597 | 36059 ft | 450 kts | 205° |
| 2026-04-23 12:34 | 35.50854 | 108.98987 | 36061 ft | 450 kts | 205° |
| 2026-04-23 12:35 | 35.44950 | 108.96381 | 36061 ft | 450 kts | 205° |
| 2026-04-23 12:35 | 35.39064 | 108.93785 | 36065 ft | 450 kts | 205° |
| 2026-04-23 12:36 | 35.33178 | 108.91191 | 36066 ft | 450 kts | 205° |
| 2026-04-23 12:36 | 35.27287 | 108.88599 | 36066 ft | 449 kts | 205° |
| 2026-04-23 12:37 | 35.21407 | 108.86017 | 36067 ft | 449 kts | 205° |
| 2026-04-23 12:37 | 35.15535 | 108.83439 | 36067 ft | 448 kts | 205° |
| 2026-04-23 12:38 | 35.10655 | 108.81297 | 36061 ft | 448 kts | 205° |
| 2026-04-23 12:38 | 35.04780 | 108.78727 | 36058 ft | 448 kts | 205° |
| 2026-04-23 12:39 | 34.98905 | 108.76172 | 36054 ft | 448 kts | 205° |
| 2026-04-23 12:39 | 34.93040 | 108.73620 | 36048 ft | 448 kts | 205° |
| 2026-04-23 12:40 | 34.87172 | 108.71057 | 36042 ft | 447 kts | 205° |
| 2026-04-23 12:40 | 34.81313 | 108.68500 | 36038 ft | 447 kts | 205° |
| 2026-04-23 12:41 | 34.75445 | 108.65955 | 36029 ft | 447 kts | 205° |
| 2026-04-23 12:41 | 34.69580 | 108.63421 | 36018 ft | 447 kts | 205° |
| 2026-04-23 12:42 | 34.63709 | 108.60884 | 36013 ft | 448 kts | 205° |
| 2026-04-23 12:42 | 34.57842 | 108.58349 | 36010 ft | 448 kts | 205° |
| 2026-04-23 12:43 | 34.52006 | 108.55828 | 36006 ft | 448 kts | 205° |
| 2026-04-23 12:43 | 34.46096 | 108.53281 | 36006 ft | 448 kts | 205° |
| 2026-04-23 12:44 | 34.40257 | 108.50773 | 36005 ft | 448 kts | 205° |
| 2026-04-23 12:44 | 34.34379 | 108.48250 | 36007 ft | 448 kts | 206° |
| 2026-04-23 12:45 | 34.28498 | 108.45725 | 36009 ft | 448 kts | 205° |
| 2026-04-23 12:45 | 34.22618 | 108.43211 | 36017 ft | 448 kts | 206° |
| 2026-04-23 12:46 | 34.16732 | 108.40693 | 36026 ft | 448 kts | 206° |
| 2026-04-23 12:46 | 34.10851 | 108.38179 | 36031 ft | 448 kts | 206° |
| 2026-04-23 12:47 | 34.04968 | 108.35672 | 36037 ft | 448 kts | 206° |
| 2026-04-23 12:47 | 33.99083 | 108.33172 | 36044 ft | 448 kts | 206° |
| 2026-04-23 12:48 | 33.93199 | 108.30675 | 36049 ft | 448 kts | 206° |
| 2026-04-23 12:48 | 33.87326 | 108.28180 | 36060 ft | 448 kts | 206° |
| 2026-04-23 12:49 | 33.81440 | 108.25680 | 36062 ft | 448 kts | 206° |
| 2026-04-23 12:49 | 33.75574 | 108.23196 | 36082 ft | 448 kts | 206° |
| 2026-04-23 12:50 | 33.69699 | 108.20713 | 36086 ft | 448 kts | 206° |
| 2026-04-23 12:50 | 33.63812 | 108.18237 | 36086 ft | 448 kts | 205° |
| 2026-04-23 12:51 | 33.57934 | 108.15767 | 36083 ft | 447 kts | 206° |
| 2026-04-23 12:51 | 33.52065 | 108.13293 | 36080 ft | 447 kts | 206° |
| 2026-04-23 12:52 | 33.46239 | 108.10842 | 36080 ft | 446 kts | 206° |
| 2026-04-23 12:52 | 33.40367 | 108.08393 | 36081 ft | 447 kts | 205° |
| 2026-04-23 12:53 | 33.34431 | 108.06185 | 36072 ft | 449 kts | 202° |
| 2026-04-23 12:53 | 33.28412 | 108.04121 | 36062 ft | 449 kts | 202° |
| 2026-04-23 12:54 | 33.22423 | 108.02043 | 36057 ft | 448 kts | 203° |
| 2026-04-23 12:54 | 33.16449 | 107.99914 | 36054 ft | 448 kts | 203° |
| 2026-04-23 12:55 | 33.10481 | 107.97774 | 36052 ft | 448 kts | 203° |
| 2026-04-23 12:55 | 33.04517 | 107.95646 | 36048 ft | 447 kts | 203° |
| 2026-04-23 12:56 | 32.98545 | 107.93530 | 36049 ft | 448 kts | 203° |
| 2026-04-23 12:56 | 32.92573 | 107.91417 | 36051 ft | 448 kts | 203° |
| 2026-04-23 12:57 | 32.86602 | 107.89307 | 36053 ft | 448 kts | 203° |
| 2026-04-23 12:57 | 32.80621 | 107.87192 | 36058 ft | 448 kts | 203° |
| 2026-04-23 12:58 | 32.74638 | 107.85074 | 36055 ft | 449 kts | 203° |
| 2026-04-23 12:58 | 32.68652 | 107.82965 | 36049 ft | 449 kts | 203° |
| 2026-04-23 12:59 | 32.62666 | 107.80858 | 36063 ft | 449 kts | 203° |
| 2026-04-23 12:59 | 32.56666 | 107.78755 | 36070 ft | 450 kts | 203° |
| 2026-04-23 13:00 | 32.50671 | 107.76656 | 36065 ft | 449 kts | 203° |
| 2026-04-23 13:00 | 32.44670 | 107.74558 | 36064 ft | 450 kts | 204° |
| 2026-04-23 13:01 | 32.38673 | 107.72451 | 36067 ft | 450 kts | 204° |
| 2026-04-23 13:01 | 32.32677 | 107.70353 | 36064 ft | 449 kts | 204° |
| 2026-04-23 13:02 | 32.26722 | 107.68277 | 36064 ft | 449 kts | 204° |
| 2026-04-23 13:02 | 32.20772 | 107.66098 | 36064 ft | 443 kts | 210° |
| 2026-04-23 13:03 | 32.15584 | 107.62521 | 36055 ft | 426 kts | 225° |
| 2026-04-23 13:03 | 32.01203 | 107.49768 | 36080 ft | 427 kts | 224° |
| 2026-04-23 13:04 | 31.82264 | 107.33069 | 36050 ft | 424 kts | 224° |
| 2026-04-23 13:04 | 31.71754 | 107.26395 | 36041 ft | 437 kts | 211° |
| 2026-04-23 13:04 | 31.60610 | 107.20589 | 36031 ft | 437 kts | 211° |
| 2026-04-23 13:05 | 31.38318 | 107.09117 | 36026 ft | 438 kts | 211° |
| 2026-04-23 13:05 | 31.26010 | 107.02803 | 36023 ft | 438 kts | 211° |
| 2026-04-23 13:06 | 31.01690 | 106.90407 | 36033 ft | 437 kts | 211° |
| 2026-04-23 13:06 | 30.98896 | 106.88985 | 35918 ft | 438 kts | 211° |
| 2026-04-23 13:07 | 30.96104 | 106.87564 | 35663 ft | 437 kts | 211° |
| 2026-04-23 13:07 | 30.93313 | 106.86144 | 35287 ft | 438 kts | 211° |
| 2026-04-23 13:07 | 30.90523 | 106.84728 | 34793 ft | 437 kts | 211° |
| 2026-04-23 13:07 | 30.87735 | 106.83317 | 34322 ft | 437 kts | 211° |
| 2026-04-23 13:08 | 30.84950 | 106.81907 | 33844 ft | 437 kts | 211° |
| 2026-04-23 13:08 | 30.82161 | 106.80495 | 33302 ft | 437 kts | 211° |
| 2026-04-23 13:08 | 30.79364 | 106.79078 | 32773 ft | 439 kts | 211° |
| 2026-04-23 13:08 | 30.76559 | 106.77653 | 32252 ft | 441 kts | 211° |
| 2026-04-23 13:09 | 30.73744 | 106.76223 | 31739 ft | 443 kts | 211° |
| 2026-04-23 13:09 | 30.70946 | 106.74807 | 31240 ft | 445 kts | 211° |
| 2026-04-23 13:09 | 30.68103 | 106.73371 | 30761 ft | 446 kts | 211° |
| 2026-04-23 13:09 | 30.65264 | 106.71943 | 30274 ft | 444 kts | 211° |
| 2026-04-23 13:10 | 30.62346 | 106.70715 | 29752 ft | 450 kts | 202° |
| 2026-04-23 13:10 | 30.59240 | 106.70082 | 29190 ft | 457 kts | 191° |
| 2026-04-23 13:10 | 30.56042 | 106.70104 | 28639 ft | 463 kts | 181° |
| 2026-04-23 13:10 | 30.52845 | 106.70422 | 28110 ft | 460 kts | 181° |
| 2026-04-23 13:11 | 30.49668 | 106.70732 | 27586 ft | 456 kts | 181° |
| 2026-04-23 13:11 | 30.46510 | 106.71031 | 27066 ft | 453 kts | 181° |
| 2026-04-23 13:11 | 30.43386 | 106.71323 | 26560 ft | 450 kts | 181° |
| 2026-04-23 13:11 | 30.40275 | 106.71616 | 26063 ft | 446 kts | 180° |
| 2026-04-23 13:12 | 30.37193 | 106.71905 | 25578 ft | 443 kts | 180° |
| 2026-04-23 13:12 | 30.34133 | 106.72032 | 25043 ft | 436 kts | 187° |
| 2026-04-23 13:12 | 30.31152 | 106.71646 | 24458 ft | 427 kts | 196° |
| 2026-04-23 13:12 | 30.28304 | 106.70778 | 23885 ft | 421 kts | 202° |
| 2026-04-23 13:13 | 30.25517 | 106.69786 | 23279 ft | 418 kts | 202° |
| 2026-04-23 13:13 | 30.22737 | 106.68809 | 22613 ft | 416 kts | 201° |
| 2026-04-23 13:13 | 30.19967 | 106.67850 | 21959 ft | 414 kts | 201° |
| 2026-04-23 13:13 | 30.17228 | 106.66907 | 21562 ft | 406 kts | 201° |
| 2026-04-23 13:14 | 30.14518 | 106.65971 | 20665 ft | 410 kts | 201° |
| 2026-04-23 13:14 | 30.11752 | 106.65003 | 19516 ft | 421 kts | 200° |
| 2026-04-23 13:14 | 30.08918 | 106.64008 | 18288 ft | 430 kts | 199° |
| 2026-04-23 13:14 | 30.06049 | 106.63001 | 17314 ft | 429 kts | 199° |
| 2026-04-23 13:15 | 30.03210 | 106.62012 | 16522 ft | 422 kts | 199° |
| 2026-04-23 13:15 | 30.00411 | 106.61044 | 15741 ft | 417 kts | 199° |
| 2026-04-23 13:15 | 29.97651 | 106.60095 | 15001 ft | 411 kts | 199° |
| 2026-04-23 13:15 | 29.94928 | 106.59159 | 14295 ft | 406 kts | 198° |
| 2026-04-23 13:16 | 29.92232 | 106.58229 | 13594 ft | 402 kts | 198° |
| 2026-04-23 13:16 | 29.89580 | 106.57315 | 13104 ft | 390 kts | 198° |
| 2026-04-23 13:16 | 29.87044 | 106.56442 | 12971 ft | 370 kts | 198° |
| 2026-04-23 13:16 | 29.84642 | 106.55613 | 12795 ft | 352 kts | 198° |
| 2026-04-23 13:17 | 29.82331 | 106.54814 | 12361 ft | 344 kts | 198° |
| 2026-04-23 13:17 | 29.80046 | 106.54021 | 11879 ft | 342 kts | 198° |
| 2026-04-23 13:17 | 29.77765 | 106.53230 | 11728 ft | 342 kts | 198° |
| 2026-04-23 13:17 | 29.75516 | 106.52451 | 11744 ft | 343 kts | 198° |
| 2026-04-23 13:18 | 29.73228 | 106.51661 | 11749 ft | 343 kts | 198° |
| 2026-04-23 13:18 | 29.70909 | 106.50863 | 11746 ft | 343 kts | 198° |
| 2026-04-23 13:18 | 29.68625 | 106.50077 | 11748 ft | 343 kts | 198° |
| 2026-04-23 13:18 | 29.66375 | 106.49303 | 11585 ft | 340 kts | 198° |
| 2026-04-23 13:19 | 29.64145 | 106.48533 | 11398 ft | 328 kts | 198° |
| 2026-04-23 13:19 | 29.62009 | 106.47797 | 11283 ft | 315 kts | 198° |
| 2026-04-23 13:19 | 29.59950 | 106.47092 | 11148 ft | 303 kts | 198° |
| 2026-04-23 13:19 | 29.57957 | 106.46410 | 10946 ft | 296 kts | 198° |
| 2026-04-23 13:20 | 29.55994 | 106.45739 | 10624 ft | 293 kts | 197° |
| 2026-04-23 13:20 | 29.54043 | 106.45073 | 10282 ft | 292 kts | 197° |
| 2026-04-23 13:20 | 29.52095 | 106.44407 | 9939 ft | 291 kts | 197° |
| 2026-04-23 13:20 | 29.50160 | 106.43746 | 9587 ft | 289 kts | 197° |
| 2026-04-23 13:21 | 29.48237 | 106.43088 | 9250 ft | 287 kts | 197° |
| 2026-04-23 13:21 | 29.46332 | 106.42437 | 8924 ft | 284 kts | 195° |
| 2026-04-23 13:21 | 29.44411 | 106.42270 | 8795 ft | 273 kts | 171° |
| 2026-04-23 13:21 | 29.42688 | 106.43023 | 8757 ft | 261 kts | 146° |
| 2026-04-23 13:22 | 29.41442 | 106.44451 | 8759 ft | 249 kts | 123° |
| 2026-04-23 13:22 | 29.40788 | 106.46226 | 8750 ft | 238 kts | 107° |
| 2026-04-23 13:22 | 29.40319 | 106.48029 | 8749 ft | 234 kts | 108° |
| 2026-04-23 13:22 | 29.39873 | 106.49764 | 8693 ft | 221 kts | 104° |
| 2026-04-23 13:23 | 29.39885 | 106.51471 | 8547 ft | 212 kts | 75° |
| 2026-04-23 13:23 | 29.40585 | 106.52915 | 8227 ft | 211 kts | 47° |
| 2026-04-23 13:23 | 29.41818 | 106.53791 | 7866 ft | 212 kts | 19° |
| 2026-04-23 13:23 | 29.42754 | 106.54117 | 7595 ft | 213 kts | 17° |
| 2026-04-23 13:24 | 29.44186 | 106.54602 | 7186 ft | 215 kts | 18° |
| 2026-04-23 13:24 | 29.45619 | 106.55092 | 6830 ft | 214 kts | 18° |
| 2026-04-23 13:24 | 29.47497 | 106.55737 | 6356 ft | 213 kts | 18° |
| 2026-04-23 13:24 | 29.48456 | 106.56067 | 6114 ft | 213 kts | 19° |
| 2026-04-23 13:25 | 29.50326 | 106.56711 | 5610 ft | 212 kts | 18° |
| 2026-04-23 13:25 | 29.51278 | 106.57038 | 5362 ft | 211 kts | 18° |
| 2026-04-23 13:25 | 29.52679 | 106.57521 | 4962 ft | 211 kts | 18° |
| 2026-04-23 13:25 | 29.54073 | 106.58001 | 4663 ft | 206 kts | 18° |
| 2026-04-23 13:26 | 29.55429 | 106.58468 | 4392 ft | 200 kts | 18° |
| 2026-04-23 13:26 | 29.56723 | 106.58913 | 4137 ft | 194 kts | 18° |
| 2026-04-23 13:26 | 29.58007 | 106.59356 | 3885 ft | 187 kts | 18° |
| 2026-04-23 13:26 | 29.59235 | 106.59779 | 3645 ft | 182 kts | 18° |
| 2026-04-23 13:27 | 29.60417 | 106.60187 | 3418 ft | 178 kts | 18° |
| 2026-04-23 13:27 | 29.61582 | 106.60589 | 3195 ft | 171 kts | 18° |
| 2026-04-23 13:27 | 29.62700 | 106.60974 | 2964 ft | 163 kts | 18° |
| 2026-04-23 13:27 | 29.63744 | 106.61334 | 2767 ft | 152 kts | 18° |
| 2026-04-23 13:28 | 29.64708 | 106.61667 | 2581 ft | 139 kts | 19° |
| 2026-04-23 13:28 | 29.65613 | 106.61979 | 2411 ft | 133 kts | 19° |
| 2026-04-23 13:28 | 29.66497 | 106.62285 | 2229 ft | 133 kts | 18° |
| 2026-04-23 13:28 | 29.67381 | 106.62591 | 2054 ft | 132 kts | 18° |
| 2026-04-23 13:29 | 29.68260 | 106.62895 | 1871 ft | 132 kts | 17° |
| 2026-04-23 13:29 | 29.69136 | 106.63198 | 1690 ft | 132 kts | 18° |
| 2026-04-23 13:29 | 29.70012 | 106.63499 | 1500 ft | 131 kts | 18° |
| 2026-04-23 13:29 | 29.70870 | 106.63792 | 1363 ft | 122 kts | 17° |
| 2026-04-23 13:30 | 29.71553 | 106.64027 | 1359 ft | 78 kts | 17° |
| 2026-04-23 13:30 | 29.71910 | 106.64151 | 1361 ft | 34 kts | 19° |
| 2026-04-23 13:30 | 29.72103 | 106.64312 | 1359 ft | 31 kts | 46° |
| 2026-04-23 13:30 | 29.72135 | 106.64434 | 1357 ft | 9 kts | 109° |
| 2026-04-23 13:31 | 29.72159 | 106.64444 | 1359 ft | 4 kts | 357° |
| 2026-04-23 13:31 | 29.72191 | 106.64453 | 1356 ft | 6 kts | 28° |
| 2026-04-23 13:31 | 29.72211 | 106.64499 | 1356 ft | 8 kts | 99° |
| 2026-04-23 13:31 | 29.72187 | 106.64566 | 1355 ft | 11 kts | 104° |
| 2026-04-23 13:32 | 29.72164 | 106.64662 | 1355 ft | 14 kts | 102° |
| 2026-04-23 13:32 | 29.72144 | 106.64777 | 1355 ft | 15 kts | 106° |
| 2026-04-23 13:32 | 29.72109 | 106.64902 | 1355 ft | 17 kts | 107° |
| 2026-04-23 13:32 | 29.72073 | 106.65044 | 1355 ft | 20 kts | 106° |
| 2026-04-23 13:33 | 29.72028 | 106.65209 | 1351 ft | 23 kts | 107° |
| 2026-04-23 13:33 | 29.71992 | 106.65352 | 1351 ft | 9 kts | 105° |
| 2026-04-23 13:33 | 29.71939 | 106.65372 | 1350 ft | 10 kts | 204° |
| 2026-04-23 13:33 | 29.71866 | 106.65340 | 1349 ft | 12 kts | 198° |
| 2026-04-23 13:34 | 29.71780 | 106.65309 | 1349 ft | 13 kts | 195° |
| 2026-04-23 13:34 | 29.71695 | 106.65290 | 1349 ft | 12 kts | 180° |
| 2026-04-23 13:34 | 29.71638 | 106.65292 | 1350 ft | 7 kts | 251° |
| 2026-04-23 13:34 | 29.71617 | 106.65260 | 1349 ft | 4 kts | 231° |
| 2026-04-23 13:35 | 29.71600 | 106.65236 | 1351 ft | 4 kts | 234° |
| 2026-04-23 13:35 | 29.71585 | 106.65205 | 1353 ft | 4 kts | 239° |
| 2026-04-23 13:35 | 29.71571 | 106.65177 | 1351 ft | 4 kts | 239° |
| 2026-04-23 13:35 | 29.71568 | 106.65171 | 1351 ft | 0 kts | 239° |